Time;durP1;ratioP1;P1;durP2;ratioP2;P2;SDS_P1;SDS_P2;PMS_P1;PMS_P2;Temp;Humidity;BMP_temperature;BMP_pressure;BME280_temperature;BME280_humidity;BME280_pressure;Samples;Min_cycle;Max_cycle;Signal;HPM_P1;HPM_P2
2022/07/31 00:00:23;;;;;;;9.95;6.70;;;;;;;23.42;47.23;101667.19;5042471;27;122339;-74
2022/07/31 00:02:50;;;;;;;11.15;6.93;;;;;;;23.40;47.26;101652.94;5050223;27;108168;-75
2022/07/31 00:05:17;;;;;;;8.70;6.38;;;;;;;23.40;47.36;101652.94;5061409;27;109010;-75
2022/07/31 00:07:45;;;;;;;7.95;7.10;;;;;;;23.38;47.51;101649.50;5067785;27;123211;-75
2022/07/31 00:10:12;;;;;;;9.60;7.38;;;;;;;23.36;47.34;101656.91;5049672;27;123199;-76
2022/07/31 00:12:39;;;;;;;9.40;6.93;;;;;;;23.35;47.40;101657.88;5064005;27;110348;-75
2022/07/31 00:15:14;;;;;;;9.23;6.88;;;;;;;23.33;47.59;101654.44;5047299;27;109198;-75
2022/07/31 00:17:42;;;;;;;7.68;6.88;;;;;;;23.30;47.66;101657.41;5042390;27;122952;-75
2022/07/31 00:20:12;;;;;;;7.57;6.78;;;;;;;23.28;47.83;101649.47;5068470;27;124311;-74
2022/07/31 00:22:40;;;;;;;7.25;6.53;;;;;;;23.27;47.84;101652.28;5062295;27;109262;-75
2022/07/31 00:25:08;;;;;;;7.50;6.18;;;;;;;23.26;47.88;101645.16;5052119;27;107826;-75
2022/07/31 00:27:35;;;;;;;8.35;6.88;;;;;;;23.25;47.84;101643.47;5064362;27;122890;-74
2022/07/31 00:30:03;;;;;;;8.65;7.10;;;;;;;23.23;47.98;101640.03;5038335;27;123726;-75
2022/07/31 00:32:30;;;;;;;8.82;7.32;;;;;;;23.22;47.88;101643.72;5045647;27;108965;-75
2022/07/31 00:34:58;;;;;;;8.43;6.50;;;;;;;23.20;48.05;101640.28;5020520;27;108169;-75
2022/07/31 00:37:25;;;;;;;10.32;7.68;;;;;;;23.18;48.02;101631.44;5065398;27;123269;-74
2022/07/31 00:39:53;;;;;;;10.77;8.20;;;;;;;23.19;48.14;101643.97;5037229;27;122768;-75
2022/07/31 00:42:22;;;;;;;13.18;9.10;;;;;;;23.18;48.34;101647.66;5045326;27;109156;-75
2022/07/31 00:44:50;;;;;;;11.27;8.57;;;;;;;;;;5039224;27;107879;-75
2022/07/31 00:47:18;;;;;;;10.05;7.10;;;;;;;23.15;48.46;101648.81;5038970;27;122439;-75
2022/07/31 00:49:50;;;;;;;9.57;6.80;;;;;;;23.09;48.39;101650.19;5055123;27;123667;-75
2022/07/31 00:52:17;;;;;;;8.85;6.90;;;;;;;23.03;48.60;101645.28;5052858;27;109214;-75
2022/07/31 00:54:45;;;;;;;8.07;7.20;;;;;;;23.02;48.74;101651.66;5059090;27;108494;-76
2022/07/31 00:57:14;;;;;;;8.40;6.90;;;;;;;23.01;48.74;101646.38;5054587;27;124077;-75
2022/07/31 00:59:41;;;;;;;9.75;7.30;;;;;;;23.01;48.88;101647.22;5057408;27;124199;-74
2022/07/31 01:02:09;;;;;;;9.02;7.40;;;;;;;23.01;48.71;101644.53;5025337;27;109935;-74
2022/07/31 01:04:36;;;;;;;8.38;7.55;;;;;;;23.02;48.70;101651.66;5039722;27;109886;-75
2022/07/31 01:07:07;;;;;;;7.97;7.07;;;;;;;22.99;48.87;101643.81;5036929;27;124019;-75
2022/07/31 01:09:34;;;;;;;9.32;8.05;;;;;;;22.99;48.86;101649.19;5050598;27;124059;-75
2022/07/31 01:12:05;;;;;;;9.93;8.30;;;;;;;22.98;48.85;101642.09;5038399;27;108170;-75
2022/07/31 01:14:42;;;;;;;9.10;7.57;;;;;;;22.97;48.87;101634.13;5043994;27;108905;-75
2022/07/31 01:17:10;;;;;;;10.90;8.02;;;;;;;22.94;48.88;101629.81;5019733;27;123323;-75
2022/07/31 01:19:43;;;;;;;8.77;7.60;;;;;;;22.90;48.93;101626.53;5042078;27;122913;-74
2022/07/31 01:22:38;;;;;;;11.10;8.32;;;;;;;22.86;49.01;101621.53;5040163;27;108233;-74
2022/07/31 01:25:22;;;;;;;9.27;8.13;;;;;;;22.83;49.03;101621.78;5032184;27;108493;-75
2022/07/31 01:28:06;;;;;;;;;;;;;;;22.79;48.49;101615.75;5032534;27;123663;-74
2022/07/31 01:30:49;;;;;;;10.85;8.13;;;;;;;22.79;48.85;101610.38;5011873;27;123948;-74
2022/07/31 01:33:52;;;;;;;11.45;9.35;;;;;;;22.77;48.91;101606.09;5049170;27;108903;-74
2022/07/31 01:36:23;;;;;;;15.80;10.25;;;;;;;22.74;49.17;101613.47;5050004;27;108587;-74
2022/07/31 01:38:54;;;;;;;13.15;9.65;;;;;;;22.68;49.46;101603.19;5005072;27;123581;-75
2022/07/31 01:41:28;;;;;;;11.18;9.32;;;;;;;22.60;49.64;101600.25;5041578;27;123435;-75
2022/07/31 01:43:57;;;;;;;11.67;8.70;;;;;;;22.54;49.75;101606.19;5014767;27;108374;-75
2022/07/31 01:46:27;;;;;;;11.48;9.70;;;;;;;22.53;50.00;101604.50;5034416;27;108590;-76
2022/07/31 01:48:56;;;;;;;10.40;9.20;;;;;;;22.51;49.99;101590.25;5041417;27;123587;-75
2022/07/31 01:51:25;;;;;;;13.15;9.65;;;;;;;22.51;50.23;101596.50;5044878;27;122637;-75
2022/07/31 01:53:54;;;;;;;10.70;9.10;;;;;;;22.51;50.20;101595.66;5021584;27;109093;-75
2022/07/31 01:56:22;;;;;;;14.13;9.38;;;;;;;22.51;50.17;101596.50;5039685;27;109180;-74
2022/07/31 01:58:51;;;;;;;11.00;9.07;;;;;;;22.52;50.32;101594.66;5034280;27;124316;-75
2022/07/31 02:01:43;;;;;;;10.43;9.13;;;;;;;22.52;50.32;101586.56;5039858;27;123503;-74
2022/07/31 02:04:14;;;;;;;11.43;9.10;;;;;;;22.51;50.55;101579.47;5035187;27;108563;-75
2022/07/31 02:06:42;;;;;;;13.25;9.45;;;;;;;22.51;50.47;101579.47;5033542;27;108623;-74
2022/07/31 02:09:11;;;;;;;10.30;8.80;;;;;;;22.51;50.63;101584.88;5029912;27;123914;-75
2022/07/31 02:11:39;;;;;;;9.98;8.88;;;;;;;22.51;50.62;101590.25;5067762;27;123664;-75
2022/07/31 02:14:23;;;;;;;11.48;8.95;;;;;;;22.51;50.85;101584.88;5033722;27;109184;-75
2022/07/31 02:16:50;;;;;;;9.93;8.93;;;;;;;22.50;50.69;101599.34;5026982;27;109014;-75
2022/07/31 02:19:24;;;;;;;12.15;9.63;;;;;;;22.50;50.71;101593.94;5017031;27;123688;-74
2022/07/31 02:21:52;;;;;;;10.32;8.73;;;;;;;22.49;50.70;101605.69;5030333;27;123478;-75
2022/07/31 02:24:19;;;;;;;11.13;9.65;;;;;;;22.48;50.79;101606.72;5038347;27;108453;-75
2022/07/31 02:26:46;;;;;;;9.45;8.48;;;;;;;22.45;50.87;101601.56;5065626;27;109209;-75
2022/07/31 02:29:14;;;;;;;14.18;9.60;;;;;;;22.43;50.96;101606.22;5051713;27;123027;-75
2022/07/31 02:31:49;;;;;;;11.43;9.90;;;;;;;22.42;51.17;101601.84;5028473;27;122960;-75
2022/07/31 02:34:31;;;;;;;12.50;9.38;;;;;;;22.40;51.05;101598.41;5018071;27;108867;-75
2022/07/31 02:37:00;;;;;;;12.82;9.40;;;;;;;22.39;51.15;101602.06;5055104;27;109140;-75
2022/07/31 02:39:29;;;;;;;12.10;10.35;;;;;;;22.39;51.14;101602.06;5038564;27;123293;-75
2022/07/31 02:41:59;;;;;;;12.27;10.38;;;;;;;22.39;51.11;101596.69;5057487;27;124581;-75
2022/07/31 02:44:30;;;;;;;11.70;10.50;;;;;;;22.38;51.22;101592.25;5053077;27;109613;-75
2022/07/31 02:47:01;;;;;;;12.70;10.38;;;;;;;22.38;51.24;101594.94;5037253;27;111642;-75
2022/07/31 02:49:29;;;;;;;12.30;10.43;;;;;;;22.35;51.37;101605.00;5015861;27;123571;-74
2022/07/31 02:51:56;;;;;;;14.30;11.45;;;;;;;22.35;51.47;101602.31;5034759;27;123073;-75
2022/07/31 02:54:25;;;;;;;14.60;11.27;;;;;;;22.33;51.64;101593.50;5038746;27;108720;-75
2022/07/31 02:56:53;;;;;;;14.98;11.40;;;;;;;22.33;51.66;101609.69;5024307;27;108264;-75
2022/07/31 02:59:21;;;;;;;12.68;11.00;;;;;;;22.31;51.50;101611.66;5029180;27;127279;-75
2022/07/31 03:02:00;;;;;;;15.02;12.07;;;;;;;22.28;51.69;101606.53;5030553;27;123475;-74
2022/07/31 03:04:29;;;;;;;13.75;10.82;;;;;;;22.26;51.84;101603.06;5024497;27;108672;-75
2022/07/31 03:06:58;;;;;;;14.82;11.60;;;;;;;22.25;51.66;101600.50;5033552;27;109229;-74
2022/07/31 03:09:26;;;;;;;13.55;11.50;;;;;;;22.23;51.99;101592.53;5037935;27;124241;-74
2022/07/31 03:12:10;;;;;;;13.90;10.98;;;;;;;22.22;51.90;101590.78;5029170;27;123253;-75
2022/07/31 03:14:38;;;;;;;14.20;11.27;;;;;;;22.22;51.80;101585.41;5040734;27;108681;-75
2022/07/31 03:17:06;;;;;;;13.75;10.55;;;;;;;22.22;51.80;101588.09;5034790;27;109853;-74
2022/07/31 03:19:34;;;;;;;12.88;11.32;;;;;;;22.20;51.83;101581.97;5018155;27;123623;-75
2022/07/31 03:22:01;;;;;;;14.77;11.57;;;;;;;22.20;51.90;101581.97;5055241;27;124043;-75
2022/07/31 03:24:29;;;;;;;13.57;11.15;;;;;;;22.20;52.06;101576.56;5049495;27;109158;-75
2022/07/31 03:26:58;;;;;;;13.30;10.52;;;;;;;22.19;52.00;101574.88;5041185;27;109527;-75
2022/07/31 03:29:35;;;;;;;13.90;10.63;;;;;;;22.19;52.08;101574.88;5064972;27;124549;-75
2022/07/31 03:32:10;;;;;;;14.55;11.15;;;;;;;22.19;52.07;101574.88;5068767;27;123066;-75
2022/07/31 03:34:37;;;;;;;14.60;10.75;;;;;;;22.19;51.97;101569.47;5050382;27;109624;-75
2022/07/31 03:37:04;;;;;;;14.30;11.27;;;;;;;22.22;52.04;101574.59;5048743;27;110031;-74
2022/07/31 03:39:32;;;;;;;16.45;10.88;;;;;;;22.23;52.10;101580.88;5043270;27;123409;-76
2022/07/31 03:42:05;;;;;;;12.38;10.75;;;;;;;22.23;52.04;101587.13;5045997;27;123698;-75
2022/07/31 03:44:40;;;;;;;;;;;;;;;22.22;51.52;101585.41;5044850;27;108917;-75
2022/07/31 03:47:07;;;;;;;13.27;10.45;;;;;;;22.25;51.72;101581.59;5047063;27;107972;-75
2022/07/31 03:49:35;;;;;;;13.43;11.07;;;;;;;22.24;51.84;101583.44;5048436;27;123158;-75
2022/07/31 03:52:02;;;;;;;18.27;11.63;;;;;;;22.24;51.86;101582.56;5044951;27;123052;-75
2022/07/31 03:54:36;;;;;;;15.18;11.13;;;;;;;22.23;51.86;101576.34;5045811;27;108677;-75
2022/07/31 03:57:18;;;;;;;13.93;11.20;;;;;;;22.22;51.85;101580.00;5053472;27;109291;-74
2022/07/31 03:59:49;;;;;;;14.88;11.32;;;;;;;22.21;51.93;101583.69;5047197;27;122681;-74
2022/07/31 04:02:17;;;;;;;13.10;10.93;;;;;;;22.20;51.75;101581.97;5059729;27;123430;-75
2022/07/31 04:04:49;;;;;;;18.63;11.00;;;;;;;22.17;51.87;101571.44;5045360;27;108326;-74
2022/07/31 04:07:16;;;;;;;12.85;9.93;;;;;;;22.17;51.90;101576.84;5065539;27;109932;-75
2022/07/31 04:09:43;;;;;;;12.50;9.98;;;;;;;22.18;52.06;101573.16;5052943;27;123495;-75
2022/07/31 04:12:12;;;;;;;14.25;11.73;;;;;;;22.18;51.87;101578.53;5062089;27;125988;-74
2022/07/31 04:14:40;;;;;;;11.57;10.25;;;;;;;22.19;51.86;101577.56;5044106;27;109275;-74
2022/07/31 04:17:07;;;;;;;12.25;10.02;;;;;;;22.18;51.89;101578.53;5050589;27;110026;-75
2022/07/31 04:19:35;;;;;;;15.50;11.07;;;;;;;22.17;51.77;101579.53;5039321;27;123312;-74
2022/07/31 04:22:02;;;;;;;13.50;10.07;;;;;;;22.17;51.85;101576.84;5039666;27;123200;-75
2022/07/31 04:24:31;;;;;;;13.13;10.45;;;;;;;22.19;51.82;101582.97;5047309;27;109183;-75
2022/07/31 04:27:18;;;;;;;13.63;10.40;;;;;;;22.18;51.96;101583.94;5073150;27;110496;-75
2022/07/31 04:29:45;;;;;;;11.45;10.25;;;;;;;22.18;51.90;101581.25;5060858;27;124427;-74
2022/07/31 04:32:14;;;;;;;13.13;9.93;;;;;;;22.17;51.95;101587.63;5053000;27;124178;-75
2022/07/31 04:35:04;;;;;;;13.55;9.73;;;;;;;22.16;52.07;101596.69;5045958;27;108435;-75
2022/07/31 04:37:32;;;;;;;14.15;9.80;;;;;;;22.14;52.05;101593.28;5047085;27;108337;-75
2022/07/31 04:39:59;;;;;;;13.55;9.75;;;;;;;22.11;52.01;101588.13;5050642;27;123354;-74
2022/07/31 04:42:26;;;;;;;11.07;9.57;;;;;;;22.10;51.99;101589.13;5046566;27;123567;-75
2022/07/31 04:44:58;;;;;;;15.75;9.05;;;;;;;22.10;52.09;101591.81;5053928;27;109112;-74
2022/07/31 04:47:25;;;;;;;15.38;9.75;;;;;;;22.08;52.22;101583.84;5070540;27;108995;-74
2022/07/31 04:49:53;;;;;;;14.90;9.95;;;;;;;22.08;52.32;101583.84;5036542;27;123182;-74
2022/07/31 04:52:20;;;;;;;13.90;10.13;;;;;;;22.08;52.36;101588.41;5051115;27;123409;-75
2022/07/31 04:54:49;;;;;;;11.63;9.32;;;;;;;22.09;52.44;101595.50;5053543;27;108870;-74
2022/07/31 04:57:16;;;;;;;12.85;9.82;;;;;;;22.11;52.37;101593.50;5045518;27;107821;-75
2022/07/31 04:59:48;;;;;;;12.73;9.95;;;;;;;22.12;52.69;101595.25;5044185;27;122559;-74
2022/07/31 05:02:27;;;;;;;12.07;9.52;;;;;;;22.12;52.55;101592.56;5035072;27;122093;-75
2022/07/31 05:04:54;;;;;;;13.02;9.60;;;;;;;22.15;52.47;101589.56;5044602;27;108997;-75
2022/07/31 05:07:26;;;;;;;12.32;10.07;;;;;;;22.17;52.52;101593.03;5048865;27;110210;-75
2022/07/31 05:09:56;;;;;;;15.50;10.77;;;;;;;22.20;52.63;101592.75;5045815;27;123813;-75
2022/07/31 05:12:23;;;;;;;14.68;10.43;;;;;;;22.21;52.58;101594.50;5040627;27;123303;-74
2022/07/31 05:14:50;;;;;;;13.63;9.77;;;;;;;22.24;52.58;101594.22;5049307;27;109480;-75
2022/07/31 05:17:18;;;;;;;15.10;10.95;;;;;;;22.25;52.67;101587.88;5047314;27;109245;-74
2022/07/31 05:20:05;;;;;;;12.27;9.25;;;;;;;22.26;52.36;101584.19;5046846;27;123985;-74
2022/07/31 05:22:56;;;;;;;12.98;10.07;;;;;;;22.29;52.73;101581.25;5050847;27;123169;-74
2022/07/31 05:25:32;;;;;;;15.02;9.15;;;;;;;22.33;52.75;101585.41;5047977;27;108432;-75
2022/07/31 05:28:00;;;;;;;14.23;9.85;;;;;;;22.35;52.69;101591.53;5043656;27;108247;-75
2022/07/31 05:30:27;;;;;;;13.32;10.13;;;;;;;22.35;52.68;101586.13;5046709;27;123494;-74
2022/07/31 05:32:57;;;;;;;13.27;9.30;;;;;;;22.35;52.59;101588.81;5045171;27;122961;-75
2022/07/31 05:35:24;;;;;;;19.08;9.95;;;;;;;22.35;52.57;101580.72;5052352;27;109116;-74
2022/07/31 05:37:51;;;;;;;13.05;9.65;;;;;;;22.37;52.79;101582.44;5042989;27;108810;-74
2022/07/31 05:40:27;;;;;;;13.77;9.32;;;;;;;22.38;52.92;101584.16;5042741;27;123864;-75
2022/07/31 05:43:29;;;;;;;13.50;8.63;;;;;;;22.35;53.04;101580.72;5009573;28;125073;-75
2022/07/31 05:46:04;;;;;;;11.48;8.98;;;;;;;22.34;53.19;101573.63;5021069;27;108686;-76
2022/07/31 05:48:32;;;;;;;11.55;8.70;;;;;;;22.33;53.25;101566.50;5064456;27;110627;-74
2022/07/31 05:50:59;;;;;;;12.43;9.10;;;;;;;22.31;53.43;101563.06;5084038;27;124379;-73
2022/07/31 05:53:31;;;;;;;13.52;9.05;;;;;;;22.32;53.73;101562.09;5076054;27;124106;-74
2022/07/31 05:56:17;;;;;;;13.32;9.32;;;;;;;22.33;53.90;101571.91;5057157;27;109491;-74
2022/07/31 05:58:49;;;;;;;12.95;8.63;;;;;;;22.33;53.92;101582.69;5018299;27;108845;-74
2022/07/31 06:01:16;;;;;;;14.68;9.82;;;;;;;22.34;54.07;101584.44;5055539;27;123915;-74
2022/07/31 06:03:43;;;;;;;12.23;9.60;;;;;;;22.38;54.40;101578.75;5030172;27;124096;-75
2022/07/31 06:06:38;;;;;;;11.55;8.85;;;;;;;22.42;54.10;101580.22;5059882;27;110585;-75
2022/07/31 06:09:05;;;;;;;12.10;9.57;;;;;;;22.47;54.34;101572.59;5031627;27;109651;-75
2022/07/31 06:11:39;;;;;;;15.27;8.90;;;;;;;22.49;54.22;101576.88;5037184;27;123988;-76
2022/07/31 06:14:07;;;;;;;11.13;8.48;;;;;;;22.51;54.27;101585.72;5031003;27;123449;-75
2022/07/31 06:17:12;;;;;;;;;;;;;;;22.51;53.60;101587.56;4998276;28;109070;-75
2022/07/31 06:19:39;;;;;;;11.27;8.57;;;;;;;22.54;53.88;101589.97;4997590;28;109007;-75
2022/07/31 06:22:06;;;;;;;13.35;8.90;;;;;;;22.56;53.99;101582.63;5009604;27;123958;-75
2022/07/31 06:24:36;;;;;;;10.13;8.50;;;;;;;22.57;54.05;101589.75;5005851;27;124406;-75
2022/07/31 06:27:04;;;;;;;12.70;8.55;;;;;;;22.57;54.15;101589.75;5048716;27;108374;-75
2022/07/31 06:29:34;;;;;;;9.82;7.93;;;;;;;22.59;54.18;101598.56;5042362;27;108485;-75
2022/07/31 06:32:09;;;;;;;11.52;8.32;;;;;;;22.59;54.27;101598.56;5034269;27;123331;-75
2022/07/31 06:34:37;;;;;;;9.43;7.63;;;;;;;22.60;54.39;101594.88;5020722;27;123195;-74
2022/07/31 06:37:04;;;;;;;9.15;8.05;;;;;;;22.63;54.49;101593.75;5038973;27;108555;-76
2022/07/31 06:39:32;;;;;;;10.57;8.00;;;;;;;22.67;54.76;101595.22;5048274;27;108895;-75
2022/07/31 06:42:44;;;;;;;10.18;7.18;;;;;;;22.73;54.51;101590.16;5054614;27;124111;-75
2022/07/31 06:45:13;;;;;;;8.85;7.80;;;;;;;22.79;54.87;101593.31;5045208;27;124644;-76
2022/07/31 06:48:33;;;;;;;10.18;7.20;;;;;;;22.83;54.53;101589.34;5005895;27;109818;-75
2022/07/31 06:51:06;;;;;;;9.18;7.20;;;;;;;22.87;54.66;101585.44;5033341;27;108273;-76
2022/07/31 06:53:54;;;;;;;9.32;6.57;;;;;;;22.92;54.52;101583.16;5023375;27;124702;-75
2022/07/31 06:56:21;;;;;;;11.85;7.22;;;;;;;22.96;54.58;101576.50;5018706;27;124186;-76
2022/07/31 06:58:48;;;;;;;8.93;6.65;;;;;;;23.00;54.73;101580.69;5032029;27;110217;-76
2022/07/31 07:01:15;;;;;;;8.18;6.13;;;;;;;23.05;54.81;101575.75;5046024;27;110055;-75
2022/07/31 07:03:43;;;;;;;9.60;5.93;;;;;;;23.11;54.75;101575.25;5030818;27;123812;-75
2022/07/31 07:06:10;;;;;;;9.60;6.15;;;;;;;23.16;54.64;101568.56;5000514;27;123562;-76
2022/07/31 07:08:37;;;;;;;8.02;5.60;;;;;;;23.23;54.71;101569.75;5016745;27;106916;-75
2022/07/31 07:11:04;;;;;;;7.68;4.80;;;;;;;23.30;54.54;101579.03;5031482;27;109013;-75
2022/07/31 07:13:35;;;;;;;8.55;5.28;;;;;;;23.36;54.63;101575.81;5029151;27;123106;-76
2022/07/31 07:16:14;;;;;;;7.25;4.97;;;;;;;23.43;54.54;101576.97;5017205;27;123956;-76
2022/07/31 07:18:41;;;;;;;7.40;4.97;;;;;;;23.50;54.56;101578.13;5031230;27;108581;-75
2022/07/31 07:21:09;;;;;;;13.82;5.30;;;;;;;23.55;54.33;101576.88;5032647;27;108935;-74
2022/07/31 07:23:38;;;;;;;7.50;4.90;;;;;;;23.59;54.37;101575.63;5030708;27;123396;-75
2022/07/31 07:26:34;;;;;;;7.00;4.57;;;;;;;23.60;54.22;101571.91;5023304;27;124441;-74
2022/07/31 07:29:03;;;;;;;6.40;5.10;;;;;;;23.64;54.29;101576.03;5033305;27;108754;-75
2022/07/31 07:31:30;;;;;;;8.75;5.18;;;;;;;23.65;54.31;101572.34;5058995;27;108925;-73
2022/07/31 07:33:57;;;;;;;8.43;5.18;;;;;;;23.67;54.10;101567.66;5049899;27;123792;-74
2022/07/31 07:36:25;;;;;;;8.32;5.10;;;;;;;23.70;54.34;101572.81;5051797;27;123802;-75
2022/07/31 07:38:56;;;;;;;6.78;4.90;;;;;;;23.74;54.43;101560.72;5044559;27;109715;-74
2022/07/31 07:41:24;;;;;;;8.23;4.93;;;;;;;23.82;54.30;101565.47;5053055;27;107780;-75
2022/07/31 07:43:52;;;;;;;7.82;4.85;;;;;;;23.85;54.39;101563.34;5065971;27;124115;-75
2022/07/31 07:46:22;;;;;;;6.97;5.13;;;;;;;23.89;54.22;101567.47;5042422;27;123925;-75
2022/07/31 07:48:53;;;;;;;7.97;5.25;;;;;;;23.95;54.09;101554.41;5050921;27;109928;-75
2022/07/31 07:51:44;;;;;;;10.95;5.90;;;;;;;23.99;54.23;101553.13;5036042;27;111270;-73
2022/07/31 07:54:45;;;;;;;9.45;6.28;;;;;;;24.01;53.98;101553.84;5051664;27;124818;-74
2022/07/31 07:57:44;;;;;;;8.63;6.10;;;;;;;24.03;54.09;101554.53;5044097;27;124181;-74
2022/07/31 08:00:29;;;;;;;9.57;6.57;;;;;;;24.08;53.93;101560.41;5035536;27;108862;-74
2022/07/31 08:03:01;;;;;;;9.57;6.50;;;;;;;24.09;53.98;101554.84;5018331;27;108123;-73
2022/07/31 08:05:48;;;;;;;11.63;6.95;;;;;;;24.10;53.72;101563.81;5032118;27;123912;-74
2022/07/31 08:08:15;;;;;;;9.68;7.15;;;;;;;24.12;53.90;101567.25;5017132;27;123271;-73
2022/07/31 08:11:03;;;;;;;10.77;6.13;;;;;;;24.13;54.00;101563.56;5027858;27;109510;-74
2022/07/31 08:13:55;;;;;;;9.60;6.82;;;;;;;24.17;53.78;101554.16;5030753;27;108734;-80
2022/07/31 08:16:42;;;;;;;9.20;6.18;;;;;;;24.24;53.97;101555.31;5041478;27;123914;-81
2022/07/31 08:19:09;;;;;;;10.27;6.25;;;;;;;24.34;53.83;101543.63;5036323;27;123292;-80
2022/07/31 08:21:38;;;;;;;9.13;5.78;;;;;;;24.44;53.88;101549.88;5044619;27;108720;-80
2022/07/31 08:24:05;;;;;;;9.35;6.10;;;;;;;24.52;53.83;101541.94;5043658;27;108513;-82
2022/07/31 08:29:19;;;;;;;9.07;5.82;;;;;;;24.75;53.92;101536.19;5026293;27;123785;-81
2022/07/31 08:32:10;;;;;;;8.55;5.35;;;;;;;24.87;53.61;101535.06;5027679;27;108895;-81
2022/07/31 08:34:56;;;;;;;7.25;5.38;;;;;;;24.93;53.34;101539.88;5043109;27;110423;-81
2022/07/31 08:37:23;;;;;;;8.45;5.45;;;;;;;24.97;53.08;101535.03;5019223;27;123639;-82
2022/07/31 08:40:11;;;;;;;8.80;5.60;;;;;;;25.00;52.88;101540.16;5024614;27;123704;-81
2022/07/31 08:42:38;;;;;;;8.00;5.35;;;;;;;25.04;52.82;101531.59;5035810;27;109473;-80
2022/07/31 08:45:07;;;;;;;7.90;5.13;;;;;;;25.10;53.04;101545.56;5037334;27;109216;-80
2022/07/31 08:47:45;;;;;;;9.55;5.63;;;;;;;25.16;52.80;101540.38;5038341;27;123577;-81
2022/07/31 08:50:16;;;;;;;8.45;5.78;;;;;;;25.24;52.65;101547.81;5035912;27;124055;-80
2022/07/31 08:52:44;;;;;;;6.25;5.05;;;;;;;25.28;52.66;101543.81;5038071;27;110705;-80
2022/07/31 08:55:20;;;;;;;7.63;5.00;;;;;;;25.33;52.59;101549.63;5020316;27;108207;-80
2022/07/31 08:58:08;;;;;;;6.75;4.63;;;;;;;25.42;52.35;101540.59;5035647;27;123153;-80
2022/07/31 09:00:36;;;;;;;8.90;5.05;;;;;;;25.51;52.36;101535.31;5031789;27;123345;-80
2022/07/31 09:03:03;;;;;;;8.00;5.18;;;;;;;25.57;52.10;101531.97;5037882;27;108516;-81
2022/07/31 09:05:43;;;;;;;6.80;5.25;;;;;;;25.63;52.33;101531.38;5051295;27;108532;-80
2022/07/31 09:08:14;;;;;;;6.38;5.00;;;;;;;25.69;52.31;101536.19;5041227;27;123621;-81
2022/07/31 09:10:45;;;;;;;7.85;5.68;;;;;;;25.75;51.86;101532.00;5031412;27;123361;-81
2022/07/31 09:13:17;;;;;;;6.75;5.30;;;;;;;25.82;51.93;101535.84;5020514;27;108912;-81
2022/07/31 09:15:46;;;;;;;7.60;5.57;;;;;;;25.90;51.72;101537.78;5045255;27;108469;-79
2022/07/31 09:18:16;;;;;;;7.40;5.22;;;;;;;25.98;51.90;101524.34;5048386;27;124038;-81
2022/07/31 09:20:55;;;;;;;6.70;5.00;;;;;;;26.06;52.15;101531.72;5025059;27;123685;-81
2022/07/31 09:23:23;;;;;;;6.47;4.75;;;;;;;26.14;52.09;101529.94;5042474;27;108812;-81
2022/07/31 09:26:04;;;;;;;7.72;5.13;;;;;;;26.23;51.38;101539.88;5039489;27;108793;-81
2022/07/31 09:28:44;;;;;;;7.70;5.22;;;;;;;26.25;51.17;101536.16;5037743;27;123520;-81
2022/07/31 09:31:12;;;;;;;7.07;4.90;;;;;;;26.24;51.26;101538.03;5055957;27;123368;-82
2022/07/31 09:34:09;;;;;;;5.78;4.75;;;;;;;26.21;51.26;101541.88;5056320;27;109971;-81
2022/07/31 09:36:39;;;;;;;7.50;4.88;;;;;;;26.22;50.95;101540.88;5033965;27;110838;-81
2022/07/31 09:39:25;;;;;;;5.63;4.82;;;;;;;26.22;50.88;101531.91;5062401;27;126092;-82
2022/07/31 09:42:12;;;;;;;6.28;4.40;;;;;;;26.21;51.26;101531.03;5062906;27;124111;-81
2022/07/31 09:44:51;;;;;;;6.10;4.70;;;;;;;26.24;51.18;101535.31;5037748;27;109172;-83
2022/07/31 09:47:29;;;;;;;6.70;4.57;;;;;;;26.23;51.13;101534.44;5056507;27;108110;-82
2022/07/31 09:50:01;;;;;;;5.90;4.90;;;;;;;26.28;51.10;101530.44;5032379;27;123631;-82
2022/07/31 09:52:30;;;;;;;6.43;4.50;;;;;;;26.31;51.45;101535.53;5055680;27;123128;-85
2022/07/31 09:55:14;;;;;;;6.45;4.68;;;;;;;26.36;51.43;101525.06;5050480;27;108748;-85
2022/07/31 09:57:54;;;;;;;7.47;5.13;;;;;;;26.40;51.23;101534.59;5041554;27;108571;-85
2022/07/31 10:00:24;;;;;;;7.85;4.93;;;;;;;26.48;51.41;101531.94;5035676;27;123014;-84
2022/07/31 10:02:54;;;;;;;5.30;4.60;;;;;;;26.57;51.35;101536.44;5036988;27;122336;-85
2022/07/31 10:05:24;;;;;;;6.38;5.20;;;;;;;26.61;51.06;101529.69;5046278;27;108517;-83
2022/07/31 10:07:56;;;;;;;7.10;5.30;;;;;;;26.65;51.75;101534.84;5051020;27;107162;-83
2022/07/31 10:10:45;;;;;;;7.13;4.88;;;;;;;26.70;51.46;101537.94;5039577;27;122398;-83
2022/07/31 10:13:28;;;;;;;6.40;4.90;;;;;;;26.73;51.70;101530.31;5057793;27;125781;-83
2022/07/31 10:16:12;;;;;;;6.75;5.15;;;;;;;26.79;51.54;101528.84;5027909;27;107613;-81
2022/07/31 10:19:10;;;;;;;6.95;4.95;;;;;;;26.86;51.79;101524.47;5038016;27;109579;-82
2022/07/31 10:21:55;;;;;;;7.22;4.22;;;;;;;26.99;51.85;101524.03;5037058;27;124468;-82
2022/07/31 10:24:31;;;;;;;6.20;4.30;;;;;;;27.11;51.36;101527.34;5035103;27;122742;-82
2022/07/31 10:26:59;;;;;;;6.88;4.70;;;;;;;27.19;51.20;101527.38;5024452;27;109697;-82
2022/07/31 10:29:40;;;;;;;5.63;4.47;;;;;;;27.26;50.84;101525.75;5056622;27;108786;-82
2022/07/31 10:32:08;;;;;;;5.90;4.05;;;;;;;27.31;50.45;101523.41;5061512;27;123570;-82
2022/07/31 10:34:59;;;;;;;5.13;4.55;;;;;;;27.37;50.59;101517.31;5079386;27;122967;-82
2022/07/31 10:37:39;;;;;;;5.43;4.15;;;;;;;27.42;50.45;101514.09;5048833;27;108932;-82
2022/07/31 10:40:47;;;;;;;6.50;4.68;;;;;;;27.50;50.47;101515.97;5052119;27;107636;-82
2022/07/31 10:43:26;;;;;;;8.32;4.68;;;;;;;27.57;50.05;101511.59;5054364;27;122718;-81
2022/07/31 10:46:27;;;;;;;7.82;4.25;;;;;;;27.63;50.00;101510.94;5039508;27;124991;-81
2022/07/31 10:49:13;;;;;;;6.22;4.55;;;;;;;27.70;50.07;101511.97;5072728;27;110396;-82
2022/07/31 10:52:29;;;;;;;5.90;4.30;;;;;;;27.76;49.42;101507.75;5056115;27;108605;-82
2022/07/31 10:55:21;;;;;;;6.85;4.25;;;;;;;27.77;49.61;101501.28;5039426;27;124104;-82
2022/07/31 10:58:12;;;;;;;7.97;4.35;;;;;;;27.79;49.53;101503.84;5027075;27;122395;-79
2022/07/31 11:01:06;;;;;;;5.15;4.07;;;;;;;27.82;49.63;101498.06;5038954;27;108931;-79
2022/07/31 11:04:08;;;;;;;5.32;3.90;;;;;;;27.92;49.49;101493.38;4963350;28;109003;-80
2022/07/31 11:06:54;;;;;;;5.15;3.80;;;;;;;28.01;49.79;101489.63;5038256;27;124867;-80
2022/07/31 11:09:40;;;;;;;4.13;3.72;;;;;;;28.13;49.50;101480.09;5032480;27;124391;-81
2022/07/31 11:12:37;;;;;;;6.55;3.88;;;;;;;28.22;48.56;101493.72;5059550;27;109349;-81
2022/07/31 11:15:25;;;;;;;8.48;4.30;;;;;;;28.22;48.77;101488.25;5050596;27;108988;-80
2022/07/31 11:18:21;;;;;;;5.88;3.78;;;;;;;28.22;48.35;101483.69;5036570;27;125342;-81
2022/07/31 11:21:07;;;;;;;6.70;3.60;;;;;;;28.23;48.11;101473.63;5025732;27;124968;-80
2022/07/31 11:23:54;;;;;;;5.50;3.60;;;;;;;28.22;48.32;101478.25;5043778;27;109215;-81
2022/07/31 11:26:31;;;;;;;4.57;3.20;;;;;;;28.23;48.22;101479.94;5054115;27;109898;-81
2022/07/31 11:29:10;;;;;;;4.20;3.33;;;;;;;28.26;48.18;101476.03;5035734;27;123191;-80
2022/07/31 11:32:03;;;;;;;4.50;3.28;;;;;;;28.23;47.75;101473.63;5068749;27;122939;-80
2022/07/31 11:34:52;;;;;;;3.50;3.00;;;;;;;28.20;47.44;101469.41;5043665;27;110051;-81
2022/07/31 11:37:22;;;;;;;4.20;3.30;;;;;;;28.18;47.58;101473.28;5062608;27;107200;-80
2022/07/31 11:39:51;;;;;;;5.43;3.50;;;;;;;28.14;47.58;101462.75;5049307;27;123539;-80
2022/07/31 11:42:21;;;;;;;5.93;3.15;;;;;;;28.14;47.77;101476.38;5078808;27;122277;-81
2022/07/31 11:45:04;;;;;;;4.03;3.00;;;;;;;28.14;47.77;101468.19;5061115;27;109658;-81
2022/07/31 11:47:38;;;;;;;6.78;3.50;;;;;;;28.15;47.58;101463.59;5045919;27;110475;-82
2022/07/31 11:50:29;;;;;;;6.32;3.17;;;;;;;28.18;47.96;101459.66;5058606;27;124671;-82